sensor_id;sensor_type;location;lat;lon;timestamp;P1;durP1;ratioP1;P2;durP2;ratioP2
18190;SDS011;47004;51.366;12.348;2024-03-22T00:00:52;19.30;;;8.50;;
18190;SDS011;47004;51.366;12.348;2024-03-22T00:02:53;18.00;;;8.57;;
18190;SDS011;47004;51.366;12.348;2024-03-22T00:04:55;16.30;;;8.00;;
18190;SDS011;47004;51.366;12.348;2024-03-22T00:06:56;19.47;;;8.13;;
18190;SDS011;47004;51.366;12.348;2024-03-22T00:09:00;20.10;;;8.83;;
18190;SDS011;47004;51.366;12.348;2024-03-22T00:11:01;19.13;;;8.47;;
18190;SDS011;47004;51.366;12.348;2024-03-22T00:13:03;19.87;;;8.57;;
18190;SDS011;47004;51.366;12.348;2024-03-22T00:15:04;18.40;;;8.20;;
18190;SDS011;47004;51.366;12.348;2024-03-22T00:17:07;17.63;;;8.37;;
18190;SDS011;47004;51.366;12.348;2024-03-22T00:19:08;15.87;;;8.43;;
18190;SDS011;47004;51.366;12.348;2024-03-22T00:21:10;20.10;;;8.70;;
18190;SDS011;47004;51.366;12.348;2024-03-22T00:23:11;18.90;;;8.47;;
18190;SDS011;47004;51.366;12.348;2024-03-22T00:25:14;18.50;;;8.50;;
18190;SDS011;47004;51.366;12.348;2024-03-22T00:27:15;17.67;;;8.47;;
18190;SDS011;47004;51.366;12.348;2024-03-22T00:29:17;18.83;;;8.97;;
18190;SDS011;47004;51.366;12.348;2024-03-22T00:31:18;18.60;;;8.70;;
18190;SDS011;47004;51.366;12.348;2024-03-22T00:33:19;18.53;;;8.67;;
18190;SDS011;47004;51.366;12.348;2024-03-22T00:35:21;20.17;;;9.07;;
18190;SDS011;47004;51.366;12.348;2024-03-22T00:37:23;18.50;;;9.57;;
18190;SDS011;47004;51.366;12.348;2024-03-22T00:39:25;19.07;;;9.60;;
18190;SDS011;47004;51.366;12.348;2024-03-22T00:41:27;19.20;;;8.97;;
18190;SDS011;47004;51.366;12.348;2024-03-22T00:43:29;20.07;;;9.27;;
18190;SDS011;47004;51.366;12.348;2024-03-22T00:45:30;19.87;;;9.90;;
18190;SDS011;47004;51.366;12.348;2024-03-22T00:47:32;20.03;;;9.63;;
18190;SDS011;47004;51.366;12.348;2024-03-22T00:49:33;21.70;;;9.87;;
18190;SDS011;47004;51.366;12.348;2024-03-22T00:51:35;19.47;;;9.90;;
18190;SDS011;47004;51.366;12.348;2024-03-22T00:53:36;21.73;;;10.07;;
18190;SDS011;47004;51.366;12.348;2024-03-22T00:55:38;19.50;;;9.50;;
18190;SDS011;47004;51.366;12.348;2024-03-22T00:57:40;22.53;;;9.87;;
18190;SDS011;47004;51.366;12.348;2024-03-22T00:59:42;25.37;;;10.33;;
18190;SDS011;47004;51.366;12.348;2024-03-22T01:01:43;24.37;;;10.77;;
18190;SDS011;47004;51.366;12.348;2024-03-22T01:03:45;23.67;;;10.63;;
18190;SDS011;47004;51.366;12.348;2024-03-22T01:05:46;25.50;;;10.70;;
18190;SDS011;47004;51.366;12.348;2024-03-22T01:07:48;22.87;;;10.40;;
18190;SDS011;47004;51.366;12.348;2024-03-22T01:09:49;22.43;;;10.63;;
18190;SDS011;47004;51.366;12.348;2024-03-22T01:11:51;25.10;;;11.33;;
18190;SDS011;47004;51.366;12.348;2024-03-22T01:13:54;24.63;;;10.90;;
18190;SDS011;47004;51.366;12.348;2024-03-22T01:15:56;23.37;;;10.80;;
18190;SDS011;47004;51.366;12.348;2024-03-22T01:17:57;24.30;;;11.20;;
18190;SDS011;47004;51.366;12.348;2024-03-22T01:19:59;26.37;;;10.97;;
18190;SDS011;47004;51.366;12.348;2024-03-22T01:22:00;24.37;;;10.83;;
18190;SDS011;47004;51.366;12.348;2024-03-22T01:24:02;32.33;;;12.07;;
18190;SDS011;47004;51.366;12.348;2024-03-22T01:26:03;27.77;;;11.77;;
18190;SDS011;47004;51.366;12.348;2024-03-22T01:28:05;27.47;;;11.63;;
18190;SDS011;47004;51.366;12.348;2024-03-22T01:30:08;27.17;;;12.20;;
18190;SDS011;47004;51.366;12.348;2024-03-22T01:32:11;28.23;;;11.60;;
18190;SDS011;47004;51.366;12.348;2024-03-22T01:34:12;28.83;;;12.33;;
18190;SDS011;47004;51.366;12.348;2024-03-22T01:36:15;29.53;;;12.23;;
18190;SDS011;47004;51.366;12.348;2024-03-22T01:38:16;25.73;;;11.63;;
18190;SDS011;47004;51.366;12.348;2024-03-22T01:40:18;24.87;;;10.87;;
18190;SDS011;47004;51.366;12.348;2024-03-22T01:42:19;26.40;;;12.30;;
18190;SDS011;47004;51.366;12.348;2024-03-22T01:44:26;25.57;;;11.93;;
18190;SDS011;47004;51.366;12.348;2024-03-22T01:46:29;29.27;;;12.80;;
18190;SDS011;47004;51.366;12.348;2024-03-22T01:48:31;30.03;;;12.30;;
18190;SDS011;47004;51.366;12.348;2024-03-22T01:50:32;28.50;;;12.57;;
18190;SDS011;47004;51.366;12.348;2024-03-22T01:52:34;31.80;;;13.33;;
18190;SDS011;47004;51.366;12.348;2024-03-22T01:54:36;29.87;;;12.87;;
18190;SDS011;47004;51.366;12.348;2024-03-22T01:56:38;28.93;;;12.53;;
18190;SDS011;47004;51.366;12.348;2024-03-22T01:58:40;29.17;;;11.60;;
18190;SDS011;47004;51.366;12.348;2024-03-22T02:00:42;25.10;;;11.30;;
18190;SDS011;47004;51.366;12.348;2024-03-22T02:02:45;27.50;;;12.27;;
18190;SDS011;47004;51.366;12.348;2024-03-22T02:04:50;26.87;;;12.33;;
18190;SDS011;47004;51.366;12.348;2024-03-22T02:06:51;29.40;;;13.33;;
18190;SDS011;47004;51.366;12.348;2024-03-22T02:08:53;25.57;;;11.83;;
18190;SDS011;47004;51.366;12.348;2024-03-22T02:10:54;28.93;;;12.53;;
18190;SDS011;47004;51.366;12.348;2024-03-22T02:12:59;26.47;;;12.23;;
18190;SDS011;47004;51.366;12.348;2024-03-22T02:15:01;29.10;;;12.47;;
18190;SDS011;47004;51.366;12.348;2024-03-22T02:17:03;27.00;;;11.70;;
18190;SDS011;47004;51.366;12.348;2024-03-22T02:19:06;27.43;;;12.60;;
18190;SDS011;47004;51.366;12.348;2024-03-22T02:21:08;28.50;;;12.47;;
18190;SDS011;47004;51.366;12.348;2024-03-22T02:23:09;25.50;;;11.37;;
18190;SDS011;47004;51.366;12.348;2024-03-22T02:25:12;29.73;;;12.20;;
18190;SDS011;47004;51.366;12.348;2024-03-22T02:27:13;26.17;;;11.60;;
18190;SDS011;47004;51.366;12.348;2024-03-22T02:29:15;28.57;;;12.67;;
18190;SDS011;47004;51.366;12.348;2024-03-22T02:31:16;28.53;;;12.47;;
18190;SDS011;47004;51.366;12.348;2024-03-22T02:33:19;25.43;;;11.47;;
18190;SDS011;47004;51.366;12.348;2024-03-22T02:35:20;25.67;;;12.10;;
18190;SDS011;47004;51.366;12.348;2024-03-22T02:37:22;30.83;;;11.67;;
18190;SDS011;47004;51.366;12.348;2024-03-22T02:39:23;27.60;;;12.63;;
18190;SDS011;47004;51.366;12.348;2024-03-22T02:41:26;31.17;;;12.40;;
18190;SDS011;47004;51.366;12.348;2024-03-22T02:43:27;24.80;;;11.10;;
18190;SDS011;47004;51.366;12.348;2024-03-22T02:45:29;25.63;;;11.93;;
18190;SDS011;47004;51.366;12.348;2024-03-22T02:47:31;29.57;;;12.00;;
18190;SDS011;47004;51.366;12.348;2024-03-22T02:49:33;26.43;;;11.23;;
18190;SDS011;47004;51.366;12.348;2024-03-22T02:51:34;31.00;;;11.67;;
18190;SDS011;47004;51.366;12.348;2024-03-22T02:53:36;27.67;;;11.87;;
18190;SDS011;47004;51.366;12.348;2024-03-22T02:55:37;26.27;;;11.67;;
18190;SDS011;47004;51.366;12.348;2024-03-22T02:57:40;25.03;;;11.40;;
18190;SDS011;47004;51.366;12.348;2024-03-22T02:59:42;25.53;;;11.37;;
18190;SDS011;47004;51.366;12.348;2024-03-22T03:01:43;20.90;;;10.13;;
18190;SDS011;47004;51.366;12.348;2024-03-22T03:03:44;23.80;;;11.07;;
18190;SDS011;47004;51.366;12.348;2024-03-22T03:05:46;26.83;;;12.10;;
18190;SDS011;47004;51.366;12.348;2024-03-22T03:07:47;24.67;;;10.83;;
18190;SDS011;47004;51.366;12.348;2024-03-22T03:09:50;26.27;;;11.27;;
18190;SDS011;47004;51.366;12.348;2024-03-22T03:11:51;25.87;;;11.47;;
18190;SDS011;47004;51.366;12.348;2024-03-22T03:13:55;29.00;;;11.27;;
18190;SDS011;47004;51.366;12.348;2024-03-22T03:15:56;22.23;;;11.00;;
18190;SDS011;47004;51.366;12.348;2024-03-22T03:17:58;26.53;;;11.90;;
18190;SDS011;47004;51.366;12.348;2024-03-22T03:19:59;25.73;;;11.57;;
18190;SDS011;47004;51.366;12.348;2024-03-22T03:22:01;25.20;;;11.33;;
18190;SDS011;47004;51.366;12.348;2024-03-22T03:24:02;25.10;;;10.77;;
18190;SDS011;47004;51.366;12.348;2024-03-22T03:26:04;22.83;;;10.57;;
18190;SDS011;47004;51.366;12.348;2024-03-22T03:28:05;20.43;;;10.13;;
18190;SDS011;47004;51.366;12.348;2024-03-22T03:30:09;25.40;;;10.63;;
18190;SDS011;47004;51.366;12.348;2024-03-22T03:32:10;23.10;;;10.03;;
18190;SDS011;47004;51.366;12.348;2024-03-22T03:34:12;23.47;;;10.10;;
18190;SDS011;47004;51.366;12.348;2024-03-22T03:36:13;25.97;;;11.67;;
18190;SDS011;47004;51.366;12.348;2024-03-22T03:38:15;21.37;;;10.17;;
18190;SDS011;47004;51.366;12.348;2024-03-22T03:40:16;24.37;;;10.80;;
18190;SDS011;47004;51.366;12.348;2024-03-22T03:42:18;22.70;;;11.17;;
18190;SDS011;47004;51.366;12.348;2024-03-22T03:44:19;26.57;;;11.50;;
18190;SDS011;47004;51.366;12.348;2024-03-22T03:46:22;21.40;;;11.03;;
18190;SDS011;47004;51.366;12.348;2024-03-22T03:48:23;23.43;;;10.60;;
18190;SDS011;47004;51.366;12.348;2024-03-22T03:50:25;24.10;;;11.30;;
18190;SDS011;47004;51.366;12.348;2024-03-22T03:52:26;21.37;;;10.27;;
18190;SDS011;47004;51.366;12.348;2024-03-22T03:54:28;26.57;;;11.30;;
18190;SDS011;47004;51.366;12.348;2024-03-22T03:56:29;24.70;;;11.10;;
18190;SDS011;47004;51.366;12.348;2024-03-22T03:58:31;22.90;;;10.60;;
18190;SDS011;47004;51.366;12.348;2024-03-22T04:00:32;20.43;;;9.93;;
18190;SDS011;47004;51.366;12.348;2024-03-22T04:02:35;24.23;;;10.33;;
18190;SDS011;47004;51.366;12.348;2024-03-22T04:04:36;22.93;;;10.10;;
18190;SDS011;47004;51.366;12.348;2024-03-22T04:06:38;22.27;;;10.27;;
18190;SDS011;47004;51.366;12.348;2024-03-22T04:08:39;19.57;;;9.90;;
18190;SDS011;47004;51.366;12.348;2024-03-22T04:10:41;20.90;;;9.63;;
18190;SDS011;47004;51.366;12.348;2024-03-22T04:12:41;22.83;;;9.97;;
18190;SDS011;47004;51.366;12.348;2024-03-22T04:14:43;22.33;;;10.17;;
18190;SDS011;47004;51.366;12.348;2024-03-22T04:16:44;20.17;;;9.67;;
18190;SDS011;47004;51.366;12.348;2024-03-22T04:18:48;22.53;;;10.13;;
18190;SDS011;47004;51.366;12.348;2024-03-22T04:20:53;20.20;;;9.40;;
18190;SDS011;47004;51.366;12.348;2024-03-22T04:22:55;23.27;;;9.30;;
18190;SDS011;47004;51.366;12.348;2024-03-22T04:24:56;19.07;;;9.20;;
18190;SDS011;47004;51.366;12.348;2024-03-22T04:26:58;17.07;;;9.23;;
18190;SDS011;47004;51.366;12.348;2024-03-22T04:28:59;22.03;;;9.67;;
18190;SDS011;47004;51.366;12.348;2024-03-22T04:31:02;17.70;;;8.70;;
18190;SDS011;47004;51.366;12.348;2024-03-22T04:33:04;18.13;;;8.67;;
18190;SDS011;47004;51.366;12.348;2024-03-22T04:35:07;16.47;;;8.93;;
18190;SDS011;47004;51.366;12.348;2024-03-22T04:37:09;21.90;;;9.70;;
18190;SDS011;47004;51.366;12.348;2024-03-22T04:39:12;21.67;;;8.93;;
18190;SDS011;47004;51.366;12.348;2024-03-22T04:41:16;18.37;;;8.37;;
18190;SDS011;47004;51.366;12.348;2024-03-22T04:43:18;16.77;;;8.10;;
18190;SDS011;47004;51.366;12.348;2024-03-22T04:45:19;16.93;;;7.93;;
18190;SDS011;47004;51.366;12.348;2024-03-22T04:47:21;15.80;;;7.30;;
18190;SDS011;47004;51.366;12.348;2024-03-22T04:49:22;14.03;;;7.13;;
18190;SDS011;47004;51.366;12.348;2024-03-22T04:51:26;13.93;;;7.00;;
18190;SDS011;47004;51.366;12.348;2024-03-22T04:53:27;16.07;;;6.87;;
18190;SDS011;47004;51.366;12.348;2024-03-22T04:55:29;14.37;;;6.67;;
18190;SDS011;47004;51.366;12.348;2024-03-22T04:57:30;13.40;;;7.00;;
18190;SDS011;47004;51.366;12.348;2024-03-22T04:59:31;12.90;;;6.77;;
18190;SDS011;47004;51.366;12.348;2024-03-22T05:01:32;11.43;;;6.43;;
18190;SDS011;47004;51.366;12.348;2024-03-22T05:03:34;14.20;;;6.53;;
18190;SDS011;47004;51.366;12.348;2024-03-22T05:05:35;11.97;;;6.03;;
18190;SDS011;47004;51.366;12.348;2024-03-22T05:07:39;12.97;;;6.17;;
18190;SDS011;47004;51.366;12.348;2024-03-22T05:09:40;11.07;;;6.17;;
18190;SDS011;47004;51.366;12.348;2024-03-22T05:11:45;12.00;;;6.00;;
18190;SDS011;47004;51.366;12.348;2024-03-22T05:13:50;13.73;;;6.37;;
18190;SDS011;47004;51.366;12.348;2024-03-22T05:15:52;13.00;;;6.07;;
18190;SDS011;47004;51.366;12.348;2024-03-22T05:17:53;10.83;;;5.73;;
18190;SDS011;47004;51.366;12.348;2024-03-22T05:19:59;14.03;;;6.37;;
18190;SDS011;47004;51.366;12.348;2024-03-22T05:22:00;16.20;;;6.87;;
18190;SDS011;47004;51.366;12.348;2024-03-22T05:24:04;18.27;;;8.27;;
18190;SDS011;47004;51.366;12.348;2024-03-22T05:26:05;14.87;;;6.37;;
18190;SDS011;47004;51.366;12.348;2024-03-22T05:28:07;13.27;;;6.33;;
18190;SDS011;47004;51.366;12.348;2024-03-22T05:30:11;13.37;;;6.30;;
18190;SDS011;47004;51.366;12.348;2024-03-22T05:32:14;11.23;;;6.37;;
18190;SDS011;47004;51.366;12.348;2024-03-22T05:34:15;13.07;;;5.80;;
18190;SDS011;47004;51.366;12.348;2024-03-22T05:36:17;16.20;;;6.37;;
18190;SDS011;47004;51.366;12.348;2024-03-22T05:38:18;12.43;;;5.93;;
18190;SDS011;47004;51.366;12.348;2024-03-22T05:40:21;11.33;;;6.00;;
18190;SDS011;47004;51.366;12.348;2024-03-22T05:42:23;10.97;;;6.03;;
18190;SDS011;47004;51.366;12.348;2024-03-22T05:44:25;12.60;;;6.90;;
18190;SDS011;47004;51.366;12.348;2024-03-22T05:46:26;14.87;;;6.77;;
18190;SDS011;47004;51.366;12.348;2024-03-22T05:48:28;12.80;;;7.23;;
18190;SDS011;47004;51.366;12.348;2024-03-22T05:50:29;12.63;;;6.43;;
18190;SDS011;47004;51.366;12.348;2024-03-22T05:52:31;11.93;;;6.60;;
18190;SDS011;47004;51.366;12.348;2024-03-22T05:54:32;11.53;;;5.77;;
18190;SDS011;47004;51.366;12.348;2024-03-22T05:56:35;13.60;;;6.47;;
18190;SDS011;47004;51.366;12.348;2024-03-22T05:58:36;12.97;;;7.00;;
18190;SDS011;47004;51.366;12.348;2024-03-22T06:00:38;9.93;;;5.63;;
18190;SDS011;47004;51.366;12.348;2024-03-22T06:02:39;15.23;;;6.43;;
18190;SDS011;47004;51.366;12.348;2024-03-22T06:04:41;11.23;;;6.10;;
18190;SDS011;47004;51.366;12.348;2024-03-22T06:06:42;11.67;;;5.50;;
18190;SDS011;47004;51.366;12.348;2024-03-22T06:08:49;13.13;;;6.23;;
18190;SDS011;47004;51.366;12.348;2024-03-22T06:10:52;14.47;;;6.50;;
18190;SDS011;47004;51.366;12.348;2024-03-22T06:12:57;14.23;;;6.60;;
18190;SDS011;47004;51.366;12.348;2024-03-22T06:14:58;11.57;;;6.03;;
18190;SDS011;47004;51.366;12.348;2024-03-22T06:17:00;9.40;;;5.63;;
18190;SDS011;47004;51.366;12.348;2024-03-22T06:19:01;9.80;;;5.73;;
18190;SDS011;47004;51.366;12.348;2024-03-22T06:21:03;14.47;;;6.57;;
18190;SDS011;47004;51.366;12.348;2024-03-22T06:23:05;12.13;;;6.47;;
18190;SDS011;47004;51.366;12.348;2024-03-22T06:25:07;12.40;;;5.60;;
18190;SDS011;47004;51.366;12.348;2024-03-22T06:27:08;13.63;;;6.80;;
18190;SDS011;47004;51.366;12.348;2024-03-22T06:29:11;11.67;;;5.97;;
18190;SDS011;47004;51.366;12.348;2024-03-22T06:31:12;14.63;;;6.83;;
18190;SDS011;47004;51.366;12.348;2024-03-22T06:33:15;10.40;;;5.40;;
18190;SDS011;47004;51.366;12.348;2024-03-22T06:35:16;10.50;;;6.00;;
18190;SDS011;47004;51.366;12.348;2024-03-22T06:37:20;12.30;;;6.13;;
18190;SDS011;47004;51.366;12.348;2024-03-22T06:39:23;14.53;;;7.10;;
18190;SDS011;47004;51.366;12.348;2024-03-22T06:41:25;11.73;;;6.50;;
18190;SDS011;47004;51.366;12.348;2024-03-22T06:43:28;13.03;;;6.43;;
18190;SDS011;47004;51.366;12.348;2024-03-22T06:45:31;15.87;;;6.77;;
18190;SDS011;47004;51.366;12.348;2024-03-22T06:47:32;14.87;;;7.20;;
18190;SDS011;47004;51.366;12.348;2024-03-22T06:49:34;12.90;;;6.10;;
18190;SDS011;47004;51.366;12.348;2024-03-22T06:51:35;16.40;;;6.43;;
18190;SDS011;47004;51.366;12.348;2024-03-22T06:53:37;17.30;;;6.93;;
18190;SDS011;47004;51.366;12.348;2024-03-22T06:55:38;16.57;;;7.40;;
18190;SDS011;47004;51.366;12.348;2024-03-22T06:57:40;14.37;;;6.33;;
18190;SDS011;47004;51.366;12.348;2024-03-22T06:59:41;14.23;;;7.37;;
18190;SDS011;47004;51.366;12.348;2024-03-22T07:01:44;15.57;;;7.03;;
18190;SDS011;47004;51.366;12.348;2024-03-22T07:03:45;16.80;;;7.17;;
18190;SDS011;47004;51.366;12.348;2024-03-22T07:05:47;16.63;;;7.70;;
18190;SDS011;47004;51.366;12.348;2024-03-22T07:07:48;15.03;;;7.20;;
18190;SDS011;47004;51.366;12.348;2024-03-22T07:09:53;16.33;;;7.60;;
18190;SDS011;47004;51.366;12.348;2024-03-22T07:11:54;17.70;;;7.40;;
18190;SDS011;47004;51.366;12.348;2024-03-22T07:13:56;15.13;;;7.10;;
18190;SDS011;47004;51.366;12.348;2024-03-22T07:15:57;15.53;;;7.33;;
18190;SDS011;47004;51.366;12.348;2024-03-22T07:18:00;18.73;;;7.73;;
18190;SDS011;47004;51.366;12.348;2024-03-22T07:20:02;19.27;;;8.07;;
18190;SDS011;47004;51.366;12.348;2024-03-22T07:22:04;17.33;;;8.00;;
18190;SDS011;47004;51.366;12.348;2024-03-22T07:24:05;19.27;;;8.53;;
18190;SDS011;47004;51.366;12.348;2024-03-22T07:26:07;15.83;;;7.30;;
18190;SDS011;47004;51.366;12.348;2024-03-22T07:28:08;14.77;;;7.80;;
18190;SDS011;47004;51.366;12.348;2024-03-22T07:30:16;17.13;;;8.10;;
18190;SDS011;47004;51.366;12.348;2024-03-22T07:32:17;19.33;;;8.40;;
18190;SDS011;47004;51.366;12.348;2024-03-22T07:34:20;18.90;;;8.43;;
18190;SDS011;47004;51.366;12.348;2024-03-22T07:36:21;17.87;;;7.57;;
18190;SDS011;47004;51.366;12.348;2024-03-22T07:38:22;15.90;;;7.97;;
18190;SDS011;47004;51.366;12.348;2024-03-22T07:40:24;17.07;;;7.43;;
18190;SDS011;47004;51.366;12.348;2024-03-22T07:42:25;21.13;;;8.73;;
18190;SDS011;47004;51.366;12.348;2024-03-22T07:44:27;18.90;;;8.37;;
18190;SDS011;47004;51.366;12.348;2024-03-22T07:46:28;16.13;;;8.27;;
18190;SDS011;47004;51.366;12.348;2024-03-22T07:48:30;17.30;;;7.97;;
18190;SDS011;47004;51.366;12.348;2024-03-22T07:50:33;17.80;;;8.33;;
18190;SDS011;47004;51.366;12.348;2024-03-22T07:52:34;17.70;;;8.43;;
18190;SDS011;47004;51.366;12.348;2024-03-22T07:54:36;20.60;;;8.77;;
18190;SDS011;47004;51.366;12.348;2024-03-22T07:56:37;18.67;;;9.17;;
18190;SDS011;47004;51.366;12.348;2024-03-22T07:58:39;20.70;;;9.23;;
18190;SDS011;47004;51.366;12.348;2024-03-22T08:00:39;23.17;;;9.17;;
18190;SDS011;47004;51.366;12.348;2024-03-22T08:02:41;21.57;;;9.67;;
18190;SDS011;47004;51.366;12.348;2024-03-22T08:04:42;20.33;;;9.27;;
18190;SDS011;47004;51.366;12.348;2024-03-22T08:06:46;22.43;;;10.50;;
18190;SDS011;47004;51.366;12.348;2024-03-22T08:08:47;21.00;;;10.17;;
18190;SDS011;47004;51.366;12.348;2024-03-22T08:10:49;20.50;;;9.53;;
18190;SDS011;47004;51.366;12.348;2024-03-22T08:12:50;22.03;;;10.40;;
18190;SDS011;47004;51.366;12.348;2024-03-22T08:14:53;21.73;;;10.23;;
18190;SDS011;47004;51.366;12.348;2024-03-22T08:16:54;26.33;;;11.30;;
18190;SDS011;47004;51.366;12.348;2024-03-22T08:18:56;23.40;;;10.97;;
18190;SDS011;47004;51.366;12.348;2024-03-22T08:20:57;22.87;;;10.67;;
18190;SDS011;47004;51.366;12.348;2024-03-22T08:23:00;23.77;;;11.27;;
18190;SDS011;47004;51.366;12.348;2024-03-22T08:25:02;25.10;;;11.03;;
18190;SDS011;47004;51.366;12.348;2024-03-22T08:27:07;22.30;;;10.83;;
18190;SDS011;47004;51.366;12.348;2024-03-22T08:29:08;24.10;;;11.33;;
18190;SDS011;47004;51.366;12.348;2024-03-22T08:31:10;22.63;;;10.80;;
18190;SDS011;47004;51.366;12.348;2024-03-22T08:33:11;23.73;;;10.70;;
18190;SDS011;47004;51.366;12.348;2024-03-22T08:35:13;25.60;;;11.60;;
18190;SDS011;47004;51.366;12.348;2024-03-22T08:37:14;28.23;;;12.20;;
18190;SDS011;47004;51.366;12.348;2024-03-22T08:39:18;25.17;;;11.80;;
18190;SDS011;47004;51.366;12.348;2024-03-22T08:41:18;23.37;;;11.13;;
18190;SDS011;47004;51.366;12.348;2024-03-22T08:43:20;24.37;;;12.10;;
18190;SDS011;47004;51.366;12.348;2024-03-22T08:45:23;25.97;;;11.87;;
18190;SDS011;47004;51.366;12.348;2024-03-22T08:47:25;33.03;;;13.43;;
18190;SDS011;47004;51.366;12.348;2024-03-22T08:49:26;24.17;;;12.17;;
18190;SDS011;47004;51.366;12.348;2024-03-22T08:51:30;23.30;;;11.43;;
18190;SDS011;47004;51.366;12.348;2024-03-22T08:53:32;26.60;;;12.87;;
18190;SDS011;47004;51.366;12.348;2024-03-22T08:55:34;28.13;;;12.87;;
18190;SDS011;47004;51.366;12.348;2024-03-22T08:57:36;24.97;;;11.87;;
18190;SDS011;47004;51.366;12.348;2024-03-22T08:59:37;25.70;;;12.20;;
18190;SDS011;47004;51.366;12.348;2024-03-22T09:01:43;27.03;;;13.90;;
18190;SDS011;47004;51.366;12.348;2024-03-22T09:03:44;23.60;;;11.70;;
18190;SDS011;47004;51.366;12.348;2024-03-22T09:05:46;25.57;;;11.83;;
18190;SDS011;47004;51.366;12.348;2024-03-22T09:07:47;27.57;;;12.33;;
18190;SDS011;47004;51.366;12.348;2024-03-22T09:09:50;23.33;;;11.47;;
18190;SDS011;47004;51.366;12.348;2024-03-22T09:11:52;23.20;;;12.30;;
18190;SDS011;47004;51.366;12.348;2024-03-22T09:13:54;28.10;;;11.30;;
18190;SDS011;47004;51.366;12.348;2024-03-22T09:15:58;26.30;;;11.07;;
18190;SDS011;47004;51.366;12.348;2024-03-22T09:18:00;26.03;;;12.60;;
18190;SDS011;47004;51.366;12.348;2024-03-22T09:20:02;28.57;;;12.37;;
18190;SDS011;47004;51.366;12.348;2024-03-22T09:22:07;24.33;;;11.97;;
18190;SDS011;47004;51.366;12.348;2024-03-22T09:24:09;27.73;;;12.03;;
18190;SDS011;47004;51.366;12.348;2024-03-22T09:26:09;24.17;;;11.27;;
18190;SDS011;47004;51.366;12.348;2024-03-22T09:28:13;25.20;;;11.47;;
18190;SDS011;47004;51.366;12.348;2024-03-22T09:30:14;23.40;;;11.50;;
18190;SDS011;47004;51.366;12.348;2024-03-22T09:32:16;23.63;;;10.60;;
18190;SDS011;47004;51.366;12.348;2024-03-22T09:34:19;22.87;;;10.80;;
18190;SDS011;47004;51.366;12.348;2024-03-22T09:36:21;22.47;;;10.40;;
18190;SDS011;47004;51.366;12.348;2024-03-22T09:38:22;21.53;;;10.37;;
18190;SDS011;47004;51.366;12.348;2024-03-22T09:40:24;23.60;;;11.10;;
18190;SDS011;47004;51.366;12.348;2024-03-22T09:42:25;22.73;;;10.97;;
18190;SDS011;47004;51.366;12.348;2024-03-22T09:44:30;20.17;;;9.97;;
18190;SDS011;47004;51.366;12.348;2024-03-22T09:46:33;20.63;;;10.17;;
18190;SDS011;47004;51.366;12.348;2024-03-22T09:48:35;17.87;;;9.93;;
18190;SDS011;47004;51.366;12.348;2024-03-22T09:50:38;19.87;;;10.30;;
18190;SDS011;47004;51.366;12.348;2024-03-22T09:52:41;25.03;;;10.47;;
18190;SDS011;47004;51.366;12.348;2024-03-22T09:54:42;22.43;;;9.97;;
18190;SDS011;47004;51.366;12.348;2024-03-22T09:56:44;18.33;;;9.20;;
18190;SDS011;47004;51.366;12.348;2024-03-22T09:58:48;19.40;;;9.67;;
18190;SDS011;47004;51.366;12.348;2024-03-22T10:00:52;20.23;;;9.87;;
18190;SDS011;47004;51.366;12.348;2024-03-22T10:02:56;19.83;;;9.70;;
18190;SDS011;47004;51.366;12.348;2024-03-22T10:04:58;19.07;;;9.13;;
18190;SDS011;47004;51.366;12.348;2024-03-22T10:06:59;19.27;;;9.17;;
18190;SDS011;47004;51.366;12.348;2024-03-22T10:09:01;18.77;;;9.60;;
18190;SDS011;47004;51.366;12.348;2024-03-22T10:11:04;16.90;;;9.10;;
18190;SDS011;47004;51.366;12.348;2024-03-22T10:13:05;17.60;;;9.17;;
18190;SDS011;47004;51.366;12.348;2024-03-22T10:15:06;19.90;;;8.80;;
18190;SDS011;47004;51.366;12.348;2024-03-22T10:17:11;19.63;;;8.97;;
18190;SDS011;47004;51.366;12.348;2024-03-22T10:19:11;16.93;;;8.53;;
18190;SDS011;47004;51.366;12.348;2024-03-22T10:21:16;14.67;;;7.30;;
18190;SDS011;47004;51.366;12.348;2024-03-22T10:23:18;16.07;;;7.77;;
18190;SDS011;47004;51.366;12.348;2024-03-22T10:25:26;14.53;;;8.00;;
18190;SDS011;47004;51.366;12.348;2024-03-22T10:27:27;14.40;;;7.30;;
18190;SDS011;47004;51.366;12.348;2024-03-22T10:29:29;14.70;;;8.20;;
18190;SDS011;47004;51.366;12.348;2024-03-22T10:31:30;14.70;;;7.13;;
18190;SDS011;47004;51.366;12.348;2024-03-22T10:33:34;15.33;;;7.57;;
18190;SDS011;47004;51.366;12.348;2024-03-22T10:35:36;16.70;;;7.13;;
18190;SDS011;47004;51.366;12.348;2024-03-22T10:37:39;12.80;;;6.73;;
18190;SDS011;47004;51.366;12.348;2024-03-22T10:39:40;14.10;;;7.00;;
18190;SDS011;47004;51.366;12.348;2024-03-22T10:41:44;13.50;;;6.77;;
18190;SDS011;47004;51.366;12.348;2024-03-22T10:43:45;16.07;;;7.30;;
18190;SDS011;47004;51.366;12.348;2024-03-22T10:45:48;15.10;;;7.03;;
18190;SDS011;47004;51.366;12.348;2024-03-22T10:47:51;17.07;;;7.50;;
18190;SDS011;47004;51.366;12.348;2024-03-22T10:49:58;16.20;;;7.53;;
18190;SDS011;47004;51.366;12.348;2024-03-22T10:52:05;12.77;;;7.40;;
18190;SDS011;47004;51.366;12.348;2024-03-22T10:54:11;12.83;;;6.93;;
18190;SDS011;47004;51.366;12.348;2024-03-22T10:56:15;16.33;;;7.80;;
18190;SDS011;47004;51.366;12.348;2024-03-22T10:58:21;15.07;;;7.50;;
18190;SDS011;47004;51.366;12.348;2024-03-22T11:00:27;16.67;;;7.20;;
18190;SDS011;47004;51.366;12.348;2024-03-22T11:02:29;14.73;;;7.20;;
18190;SDS011;47004;51.366;12.348;2024-03-22T11:04:30;16.00;;;7.80;;
18190;SDS011;47004;51.366;12.348;2024-03-22T11:06:35;17.47;;;8.03;;
18190;SDS011;47004;51.366;12.348;2024-03-22T11:08:37;14.20;;;7.63;;
18190;SDS011;47004;51.366;12.348;2024-03-22T11:10:39;14.83;;;7.60;;
18190;SDS011;47004;51.366;12.348;2024-03-22T11:12:40;17.10;;;8.97;;
18190;SDS011;47004;51.366;12.348;2024-03-22T11:14:42;15.03;;;8.27;;
18190;SDS011;47004;51.366;12.348;2024-03-22T11:16:43;16.63;;;8.47;;
18190;SDS011;47004;51.366;12.348;2024-03-22T11:18:45;15.30;;;8.40;;
18190;SDS011;47004;51.366;12.348;2024-03-22T11:20:46;19.40;;;8.77;;
18190;SDS011;47004;51.366;12.348;2024-03-22T11:22:50;23.43;;;9.00;;
18190;SDS011;47004;51.366;12.348;2024-03-22T11:24:52;16.77;;;8.80;;
18190;SDS011;47004;51.366;12.348;2024-03-22T11:26:54;15.83;;;8.90;;
18190;SDS011;47004;51.366;12.348;2024-03-22T11:28:54;16.00;;;8.63;;
18190;SDS011;47004;51.366;12.348;2024-03-22T11:30:56;16.57;;;8.67;;
18190;SDS011;47004;51.366;12.348;2024-03-22T11:32:57;19.40;;;9.70;;
18190;SDS011;47004;51.366;12.348;2024-03-22T11:35:02;16.80;;;9.10;;
18190;SDS011;47004;51.366;12.348;2024-03-22T11:37:07;19.03;;;9.57;;
18190;SDS011;47004;51.366;12.348;2024-03-22T11:39:12;19.33;;;9.53;;
18190;SDS011;47004;51.366;12.348;2024-03-22T11:41:13;17.93;;;9.33;;
18190;SDS011;47004;51.366;12.348;2024-03-22T11:43:17;17.77;;;8.97;;
18190;SDS011;47004;51.366;12.348;2024-03-22T11:45:18;16.73;;;8.93;;
18190;SDS011;47004;51.366;12.348;2024-03-22T11:47:21;16.17;;;9.50;;
18190;SDS011;47004;51.366;12.348;2024-03-22T11:49:22;19.40;;;9.97;;